createdAt,value
2023-06-21T00:01:51.152Z,16.80
2023-06-21T00:05:59.617Z,16.00
2023-06-21T00:10:09.208Z,15.10
2023-06-21T00:14:17.174Z,15.90
2023-06-21T00:18:25.782Z,16.20
2023-06-21T00:22:35.000Z,16.10
2023-06-21T00:26:43.434Z,16.20
2023-06-21T00:30:51.500Z,18.00
2023-06-21T00:34:59.234Z,19.10
2023-06-21T00:39:07.940Z,20.00
2023-06-21T00:43:18.137Z,15.20
2023-06-21T00:47:26.065Z,20.20
2023-06-21T00:51:35.115Z,16.70
2023-06-21T00:55:43.077Z,16.40
2023-06-21T00:59:51.025Z,17.60
2023-06-21T01:04:00.300Z,18.90
2023-06-21T01:08:16.778Z,18.50
2023-06-21T01:12:34.969Z,14.70
2023-06-21T01:16:46.115Z,18.50
2023-06-21T01:20:58.691Z,16.20
2023-06-21T01:25:21.962Z,16.90
2023-06-21T01:29:34.530Z,16.90
2023-06-21T01:33:43.079Z,17.10
2023-06-21T01:37:52.705Z,19.40
2023-06-21T01:42:01.242Z,17.40
2023-06-21T01:46:11.295Z,15.40
2023-06-21T01:50:20.240Z,18.40
2023-06-21T01:54:28.698Z,20.60
2023-06-21T01:58:37.182Z,17.60
2023-06-21T02:02:48.556Z,17.60
2023-06-21T02:06:56.899Z,16.20
2023-06-21T02:11:06.918Z,16.50
2023-06-21T02:15:16.145Z,18.30
2023-06-21T02:19:26.361Z,16.90
2023-06-21T02:23:34.278Z,17.50
2023-06-21T02:27:42.533Z,17.30
2023-06-21T02:31:52.086Z,17.80
2023-06-21T02:36:00.316Z,15.50
2023-06-21T02:40:12.126Z,16.80
2023-06-21T02:44:21.305Z,17.60
2023-06-21T02:48:28.961Z,18.30
2023-06-21T02:52:36.966Z,18.20
2023-06-21T02:56:45.125Z,17.60
2023-06-21T03:00:53.340Z,16.90
2023-06-21T03:05:01.451Z,17.20
2023-06-21T03:09:09.121Z,18.30
2023-06-21T03:13:18.061Z,17.30
2023-06-21T03:17:28.222Z,16.40
2023-06-21T03:21:36.520Z,18.20
2023-06-21T03:25:44.568Z,18.80
2023-06-21T03:29:52.214Z,19.20
2023-06-21T03:34:00.153Z,19.90
2023-06-21T03:38:09.947Z,19.70
2023-06-21T03:42:18.157Z,17.10
2023-06-21T03:46:26.365Z,16.30
2023-06-21T03:50:34.340Z,22.50
2023-06-21T03:54:41.982Z,17.70
2023-06-21T03:58:50.427Z,17.00
2023-06-21T04:02:59.329Z,18.30
2023-06-21T04:07:09.884Z,15.50
2023-06-21T04:11:19.425Z,15.60
2023-06-21T04:15:31.907Z,14.90
2023-06-21T04:19:39.637Z,15.10
2023-06-21T04:23:47.769Z,15.30
2023-06-21T04:27:55.717Z,17.50
2023-06-21T04:32:06.292Z,18.90
2023-06-21T04:36:18.718Z,21.30
2023-06-21T04:40:27.957Z,16.90
2023-06-21T04:44:36.257Z,19.70
2023-06-21T04:48:43.868Z,17.20
2023-06-21T04:52:51.736Z,17.50
2023-06-21T04:56:59.907Z,16.60
2023-06-21T05:01:08.971Z,16.70
2023-06-21T05:05:16.750Z,17.20
2023-06-21T05:09:24.540Z,16.00
2023-06-21T05:13:33.240Z,16.50
2023-06-21T05:17:40.955Z,21.00
2023-06-21T05:21:48.571Z,21.10
2023-06-21T05:25:55.973Z,16.10
2023-06-21T05:30:03.879Z,17.10
2023-06-21T05:34:12.179Z,16.90
2023-06-21T05:38:19.515Z,18.60
2023-06-21T05:42:26.877Z,18.00
2023-06-21T05:46:35.611Z,20.20
2023-06-21T05:50:44.362Z,17.90
2023-06-21T05:54:52.288Z,17.30
2023-06-21T05:59:00.669Z,18.30
2023-06-21T06:03:10.026Z,20.40
2023-06-21T06:07:20.423Z,17.40
2023-06-21T06:11:28.648Z,21.90
2023-06-21T06:15:36.107Z,20.50
2023-06-21T06:19:44.375Z,22.70
2023-06-21T06:23:52.961Z,17.00
2023-06-21T06:28:00.569Z,18.30
2023-06-21T06:32:10.639Z,19.70
2023-06-21T06:36:21.206Z,18.90
2023-06-21T06:40:28.970Z,17.80
2023-06-21T06:44:38.493Z,16.80
2023-06-21T06:48:46.379Z,18.70
2023-06-21T06:52:55.104Z,19.00
2023-06-21T06:57:03.007Z,21.20
2023-06-21T07:01:11.562Z,20.20
2023-06-21T07:05:19.602Z,22.80
2023-06-21T07:09:28.010Z,20.40
2023-06-21T07:13:35.417Z,20.10
2023-06-21T07:17:43.184Z,19.50
2023-06-21T07:21:51.424Z,19.10
2023-06-21T07:25:58.841Z,19.20
2023-06-21T07:30:08.047Z,20.50
2023-06-21T07:34:17.286Z,19.00
2023-06-21T07:38:24.981Z,18.90
2023-06-21T07:42:32.673Z,16.40
2023-06-21T07:46:40.290Z,17.30
2023-06-21T07:50:48.107Z,16.70
2023-06-21T07:54:55.899Z,17.50
2023-06-21T07:59:03.869Z,18.70
2023-06-21T08:03:12.217Z,18.60
2023-06-21T08:07:22.551Z,16.80
2023-06-21T08:11:31.731Z,17.00
2023-06-21T08:15:39.457Z,14.80
2023-06-21T08:19:47.058Z,14.80
2023-06-21T08:23:54.724Z,18.20
2023-06-21T08:28:02.482Z,14.00
2023-06-21T08:32:10.972Z,13.30
2023-06-21T08:36:19.920Z,15.50
2023-06-21T08:40:32.263Z,14.00
2023-06-21T08:44:40.490Z,15.00
2023-06-21T08:48:50.516Z,13.10
2023-06-21T08:53:00.531Z,14.80
2023-06-21T08:57:13.284Z,16.10
2023-06-21T09:01:28.386Z,16.20
2023-06-21T09:05:43.583Z,14.30
2023-06-21T09:09:53.530Z,15.70
2023-06-21T09:14:01.454Z,14.10
2023-06-21T09:18:09.472Z,15.20
2023-06-21T09:22:17.827Z,16.70
2023-06-21T09:26:25.277Z,15.60
2023-06-21T09:30:38.933Z,13.80
2023-06-21T09:34:47.025Z,17.80
2023-06-21T09:38:55.174Z,16.30
2023-06-21T09:43:02.897Z,15.90
2023-06-21T09:47:15.157Z,15.40
2023-06-21T09:51:27.132Z,15.10
2023-06-21T09:55:34.701Z,15.60
2023-06-21T09:59:43.348Z,15.90
2023-06-21T10:03:51.331Z,16.10
2023-06-21T10:07:59.382Z,15.70
2023-06-21T10:12:07.929Z,15.80
2023-06-21T10:16:19.073Z,14.20
2023-06-21T10:20:27.513Z,16.30
2023-06-21T10:24:42.145Z,15.10
2023-06-21T10:28:53.410Z,15.40
2023-06-21T10:33:06.455Z,17.00
2023-06-21T10:37:23.402Z,15.10
2023-06-21T10:41:31.501Z,18.20
2023-06-21T10:45:40.702Z,16.10
2023-06-21T10:49:49.302Z,15.50
2023-06-21T10:53:58.973Z,14.10
2023-06-21T10:58:08.221Z,16.10
2023-06-21T11:02:15.746Z,14.50
2023-06-21T11:06:33.352Z,14.10
2023-06-21T11:10:48.303Z,14.70
2023-06-21T11:14:56.197Z,16.30
2023-06-21T11:19:08.933Z,13.60
2023-06-21T11:23:19.635Z,13.60
2023-06-21T11:27:27.674Z,14.90
2023-06-21T11:31:42.636Z,16.00
2023-06-21T11:35:53.793Z,15.30
2023-06-21T11:40:03.767Z,15.80
2023-06-21T11:44:13.221Z,17.70
2023-06-21T11:48:21.223Z,15.40
2023-06-21T11:52:35.069Z,14.80
2023-06-21T11:56:47.087Z,16.70
2023-06-21T12:00:55.381Z,15.30
2023-06-21T12:05:06.202Z,14.80
2023-06-21T12:09:14.484Z,14.80
2023-06-21T12:13:25.340Z,15.10
2023-06-21T12:17:32.600Z,15.40
2023-06-21T12:21:41.600Z,12.60
2023-06-21T12:25:51.438Z,14.50
2023-06-21T12:29:58.801Z,14.20
2023-06-21T12:34:06.738Z,12.60
2023-06-21T12:38:16.415Z,13.90
2023-06-21T12:42:30.690Z,12.70
2023-06-21T12:46:42.202Z,12.10
2023-06-21T12:50:50.236Z,10.10
2023-06-21T12:54:58.343Z,10.00
2023-06-21T12:59:06.813Z,11.60
2023-06-21T13:03:15.093Z,12.20
2023-06-21T13:07:23.191Z,11.60
2023-06-21T13:11:31.010Z,9.00
2023-06-21T13:15:39.086Z,11.00
2023-06-21T13:19:46.854Z,10.30
2023-06-21T13:23:55.811Z,9.00
2023-06-21T13:28:03.750Z,10.00
2023-06-21T13:32:14.346Z,8.70
2023-06-21T13:36:22.078Z,9.50
2023-06-21T13:40:30.252Z,9.20
2023-06-21T13:44:38.505Z,10.10
2023-06-21T13:48:46.833Z,8.60
2023-06-21T13:52:54.401Z,12.40
2023-06-21T13:57:05.184Z,10.20
2023-06-21T14:01:12.837Z,11.20
2023-06-21T14:05:22.948Z,9.50
2023-06-21T14:09:30.708Z,9.00
2023-06-21T14:13:38.759Z,9.60
2023-06-21T14:17:46.598Z,10.60
2023-06-21T14:21:54.917Z,8.40
2023-06-21T14:26:02.995Z,8.80
2023-06-21T14:30:16.101Z,8.80
2023-06-21T14:34:24.127Z,9.00
2023-06-21T14:38:32.373Z,9.00
2023-06-21T14:42:40.148Z,9.30
2023-06-21T14:46:47.976Z,10.90
2023-06-21T14:50:56.169Z,11.00
2023-06-21T14:55:04.236Z,9.40
2023-06-21T14:59:11.784Z,9.20
2023-06-21T15:03:19.654Z,9.10
2023-06-21T15:07:27.541Z,8.50
2023-06-21T15:11:35.245Z,11.30
2023-06-21T15:15:43.733Z,10.40
2023-06-21T15:19:51.840Z,8.50
2023-06-21T15:23:59.628Z,9.80
2023-06-21T15:28:07.609Z,8.90
2023-06-21T15:32:15.657Z,8.40
2023-06-21T15:36:23.055Z,9.20
2023-06-21T15:40:30.584Z,9.60
2023-06-21T15:44:38.409Z,11.80
2023-06-21T15:48:46.389Z,12.80
2023-06-21T15:52:54.043Z,14.60
2023-06-21T15:57:02.500Z,11.40
2023-06-21T16:01:13.393Z,11.20
2023-06-21T16:05:21.468Z,12.10
2023-06-21T16:09:29.451Z,12.90
2023-06-21T16:13:46.400Z,10.60
2023-06-21T16:17:55.370Z,14.40
2023-06-21T16:22:02.949Z,11.30
2023-06-21T16:26:10.476Z,11.00
2023-06-21T16:30:18.889Z,12.40
2023-06-21T16:34:26.552Z,15.50
2023-06-21T16:38:34.613Z,12.70
2023-06-21T16:42:42.320Z,13.50
2023-06-21T16:46:50.840Z,13.40
2023-06-21T16:50:58.774Z,10.80
2023-06-21T16:55:06.908Z,15.40
2023-06-21T16:59:14.943Z,11.20
2023-06-21T17:03:23.187Z,13.50
2023-06-21T17:07:31.467Z,15.50
2023-06-21T17:11:38.937Z,15.90
2023-06-21T17:15:46.614Z,13.30
2023-06-21T17:19:55.251Z,11.70
2023-06-21T17:24:03.444Z,11.80
2023-06-21T17:28:11.433Z,13.70
2023-06-21T17:32:20.105Z,11.50
2023-06-21T17:36:28.018Z,13.70
2023-06-21T17:40:36.100Z,11.70
2023-06-21T17:44:43.724Z,10.00
2023-06-21T17:48:51.456Z,13.20
2023-06-21T17:52:59.336Z,11.20
2023-06-21T17:57:08.611Z,11.70
2023-06-21T18:01:17.494Z,11.20
2023-06-21T18:05:25.824Z,13.30
2023-06-21T18:09:34.098Z,12.30
2023-06-21T18:13:42.155Z,11.40
2023-06-21T18:17:49.565Z,11.50
2023-06-21T18:22:11.337Z,9.90
2023-06-21T18:26:20.726Z,12.90
2023-06-21T18:30:28.648Z,13.40
2023-06-21T18:34:37.348Z,10.70
2023-06-21T18:38:45.970Z,13.10
2023-06-21T18:42:53.695Z,12.80
2023-06-21T18:47:05.347Z,17.10
2023-06-21T18:51:13.141Z,14.00
2023-06-21T18:55:22.065Z,13.20
2023-06-21T18:59:30.382Z,12.80
2023-06-21T19:03:38.706Z,12.20
2023-06-21T19:07:46.704Z,12.20
2023-06-21T19:11:54.126Z,13.90
2023-06-21T19:16:01.870Z,12.40
2023-06-21T19:20:12.081Z,13.20
2023-06-21T19:24:20.264Z,12.20
2023-06-21T19:28:28.050Z,12.50
2023-06-21T19:32:35.886Z,13.80
2023-06-21T19:36:43.322Z,12.90
2023-06-21T19:40:51.881Z,11.30
2023-06-21T19:44:59.346Z,13.90
2023-06-21T19:49:07.693Z,12.80
2023-06-21T19:53:15.742Z,13.50
2023-06-21T19:57:24.964Z,16.60
2023-06-21T20:01:33.222Z,11.90
2023-06-21T20:05:41.028Z,11.90
2023-06-21T20:09:48.468Z,13.70
2023-06-21T20:13:56.048Z,12.60
2023-06-21T20:18:03.713Z,11.10
2023-06-21T20:22:11.483Z,14.00
2023-06-21T20:26:21.657Z,12.70
2023-06-21T20:30:29.610Z,11.80
2023-06-21T20:34:38.745Z,12.10
2023-06-21T20:38:46.372Z,11.30
2023-06-21T20:42:56.176Z,11.30
2023-06-21T20:47:06.919Z,13.20
2023-06-21T20:51:14.716Z,13.30
2023-06-21T20:55:27.471Z,13.00
2023-06-21T20:59:35.171Z,13.20
2023-06-21T21:03:42.959Z,14.10
2023-06-21T21:07:51.393Z,12.50
2023-06-21T21:11:59.532Z,11.30
2023-06-21T21:16:07.489Z,12.60
2023-06-21T21:20:15.595Z,12.60
2023-06-21T21:24:23.042Z,14.20
2023-06-21T21:28:30.887Z,14.00
2023-06-21T21:32:39.021Z,13.60
2023-06-21T21:36:46.861Z,13.90
2023-06-21T21:40:54.382Z,13.70
2023-06-21T21:45:03.405Z,13.00
2023-06-21T21:49:10.903Z,13.10
2023-06-21T21:53:18.432Z,12.70
2023-06-21T21:57:27.031Z,13.80
2023-06-21T22:01:35.448Z,13.40
2023-06-21T22:05:43.246Z,15.70
2023-06-21T22:09:51.141Z,14.40
2023-06-21T22:13:58.874Z,13.80
2023-06-21T22:18:07.313Z,15.60
2023-06-21T22:22:18.756Z,14.90
2023-06-21T22:26:26.595Z,14.50
2023-06-21T22:30:39.308Z,15.00
2023-06-21T22:34:53.484Z,14.60
2023-06-21T22:39:01.644Z,15.10
2023-06-21T22:43:09.309Z,14.40
2023-06-21T22:47:18.885Z,17.80
2023-06-21T22:51:28.200Z,14.20
2023-06-21T22:55:37.124Z,14.20
2023-06-21T22:59:44.696Z,14.90
2023-06-21T23:03:52.840Z,14.90
2023-06-21T23:08:02.582Z,15.50
2023-06-21T23:12:11.966Z,13.80
2023-06-21T23:16:22.910Z,13.30
2023-06-21T23:20:34.588Z,14.30
2023-06-21T23:24:43.030Z,14.90
2023-06-21T23:28:50.990Z,13.70
2023-06-21T23:32:58.833Z,13.70
2023-06-21T23:37:06.563Z,15.50
2023-06-21T23:41:15.364Z,15.50
2023-06-21T23:45:23.190Z,15.50
2023-06-21T23:49:30.901Z,13.40
2023-06-21T23:53:39.610Z,14.60
2023-06-21T23:57:47.271Z,14.10
